sensor_id;sensor_type;location;lat;lon;timestamp;pressure;altitude;pressure_sealevel;temperature;humidity
29121;BME280;16191;49.548;8.658;2022-12-18T00:02:12;101718.81;;;-7.43;100.00
29121;BME280;16191;49.548;8.658;2022-12-18T00:04:39;101716.19;;;-7.45;100.00
29121;BME280;16191;49.548;8.658;2022-12-18T00:07:06;101706.13;;;-7.43;100.00
29121;BME280;16191;49.548;8.658;2022-12-18T00:09:33;101709.06;;;-7.36;100.00
29121;BME280;16191;49.548;8.658;2022-12-18T00:12:06;101702.66;;;-7.45;100.00
29121;BME280;16191;49.548;8.658;2022-12-18T00:14:41;101702.38;;;-7.50;100.00
29121;BME280;16191;49.548;8.658;2022-12-18T00:17:11;101688.25;;;-7.30;100.00
29121;BME280;16191;49.548;8.658;2022-12-18T00:19:38;101690.09;;;-7.28;100.00
29121;BME280;16191;49.548;8.658;2022-12-18T00:22:04;101697.91;;;-7.39;100.00
29121;BME280;16191;49.548;8.658;2022-12-18T00:24:32;101705.59;;;-7.38;100.00
29121;BME280;16191;49.548;8.658;2022-12-18T00:26:59;101706.31;;;-7.55;100.00
29121;BME280;16191;49.548;8.658;2022-12-18T00:29:25;101714.78;;;-7.40;100.00
29121;BME280;16191;49.548;8.658;2022-12-18T00:31:52;101704.22;;;-7.47;100.00
29121;BME280;16191;49.548;8.658;2022-12-18T00:34:19;101704.00;;;-7.36;100.00
29121;BME280;16191;49.548;8.658;2022-12-18T00:36:47;101706.41;;;-7.39;100.00
29121;BME280;16191;49.548;8.658;2022-12-18T00:39:14;101723.34;;;-7.38;100.00
29121;BME280;16191;49.548;8.658;2022-12-18T00:41:43;101720.03;;;-7.37;100.00
29121;BME280;16191;49.548;8.658;2022-12-18T00:44:29;101719.16;;;-7.37;100.00
29121;BME280;16191;49.548;8.658;2022-12-18T00:46:56;101712.56;;;-7.34;100.00
29121;BME280;16191;49.548;8.658;2022-12-18T00:49:23;101712.44;;;-7.37;100.00
29121;BME280;16191;49.548;8.658;2022-12-18T00:51:50;101723.75;;;-7.76;100.00
29121;BME280;16191;49.548;8.658;2022-12-18T00:54:17;101720.56;;;-7.42;100.00
29121;BME280;16191;49.548;8.658;2022-12-18T00:56:44;101727.97;;;-7.31;100.00
29121;BME280;16191;49.548;8.658;2022-12-18T00:59:16;101729.91;;;-7.41;100.00
29121;BME280;16191;49.548;8.658;2022-12-18T01:01:43;101721.09;;;-7.48;100.00
29121;BME280;16191;49.548;8.658;2022-12-18T01:04:11;101724.19;;;-7.68;100.00
29121;BME280;16191;49.548;8.658;2022-12-18T01:06:38;101724.78;;;-7.57;100.00
29121;BME280;16191;49.548;8.658;2022-12-18T01:09:05;101716.47;;;-7.55;100.00
29121;BME280;16191;49.548;8.658;2022-12-18T01:11:35;101717.44;;;-7.53;100.00
29121;BME280;16191;49.548;8.658;2022-12-18T01:14:03;101711.81;;;-7.47;100.00
29121;BME280;16191;49.548;8.658;2022-12-18T01:16:30;101710.53;;;-7.55;100.00
29121;BME280;16191;49.548;8.658;2022-12-18T01:18:57;101715.28;;;-7.62;100.00
29121;BME280;16191;49.548;8.658;2022-12-18T01:21:26;101709.72;;;-7.54;100.00
29121;BME280;16191;49.548;8.658;2022-12-18T01:23:54;101702.81;;;-7.42;100.00
29121;BME280;16191;49.548;8.658;2022-12-18T01:26:23;101702.19;;;-7.38;100.00
29121;BME280;16191;49.548;8.658;2022-12-18T01:29:09;101699.06;;;-7.49;100.00
29121;BME280;16191;49.548;8.658;2022-12-18T01:31:56;101702.44;;;-7.65;100.00
29121;BME280;16191;49.548;8.658;2022-12-18T01:34:43;101704.34;;;-7.61;100.00
29121;BME280;16191;49.548;8.658;2022-12-18T01:37:29;101714.41;;;-7.62;100.00
29121;BME280;16191;49.548;8.658;2022-12-18T01:40:16;101710.72;;;-7.67;100.00
29121;BME280;16191;49.548;8.658;2022-12-18T01:43:03;101725.06;;;-7.68;100.00
29121;BME280;16191;49.548;8.658;2022-12-18T01:45:31;101709.34;;;-7.62;100.00
29121;BME280;16191;49.548;8.658;2022-12-18T01:48:03;101723.59;;;-7.93;100.00
29121;BME280;16191;49.548;8.658;2022-12-18T01:50:38;101720.81;;;-7.83;100.00
29121;BME280;16191;49.548;8.658;2022-12-18T01:53:10;101733.72;;;-7.79;100.00
29121;BME280;16191;49.548;8.658;2022-12-18T01:55:42;101727.97;;;-7.91;100.00
29121;BME280;16191;49.548;8.658;2022-12-18T01:58:09;101736.31;;;-7.77;100.00
29121;BME280;16191;49.548;8.658;2022-12-18T02:00:36;101730.25;;;-7.81;100.00
29121;BME280;16191;49.548;8.658;2022-12-18T02:03:03;101721.84;;;-7.80;100.00
29121;BME280;16191;49.548;8.658;2022-12-18T02:06:20;101719.91;;;-7.99;100.00
29121;BME280;16191;49.548;8.658;2022-12-18T02:08:35;101720.53;;;-7.88;100.00
29121;BME280;16191;49.548;8.658;2022-12-18T02:14:01;101720.28;;;-8.07;100.00
29121;BME280;16191;49.548;8.658;2022-12-18T02:19:54;101744.38;;;-7.99;100.00
29121;BME280;16191;49.548;8.658;2022-12-18T02:25:25;101748.75;;;-8.26;100.00
29121;BME280;16191;49.548;8.658;2022-12-18T02:27:56;101735.38;;;-8.23;100.00
29121;BME280;16191;49.548;8.658;2022-12-18T02:30:26;101727.19;;;-8.34;100.00
29121;BME280;16191;49.548;8.658;2022-12-18T02:32:54;101730.91;;;-8.27;100.00
29121;BME280;16191;49.548;8.658;2022-12-18T02:35:24;101747.69;;;-8.30;100.00
29121;BME280;16191;49.548;8.658;2022-12-18T02:37:55;101733.44;;;-8.27;100.00
29121;BME280;16191;49.548;8.658;2022-12-18T02:40:24;101725.25;;;-8.23;100.00
29121;BME280;16191;49.548;8.658;2022-12-18T02:42:52;101710.13;;;-8.22;100.00
29121;BME280;16191;49.548;8.658;2022-12-18T02:45:19;101701.59;;;-8.24;100.00
29121;BME280;16191;49.548;8.658;2022-12-18T02:47:48;101708.66;;;-8.18;100.00
29121;BME280;16191;49.548;8.658;2022-12-18T02:50:37;101701.41;;;-8.12;100.00
29121;BME280;16191;49.548;8.658;2022-12-18T02:53:32;101692.94;;;-8.13;100.00
29121;BME280;16191;49.548;8.658;2022-12-18T02:56:13;101686.03;;;-8.30;100.00
29121;BME280;16191;49.548;8.658;2022-12-18T02:59:04;101676.19;;;-8.25;100.00
29121;BME280;16191;49.548;8.658;2022-12-18T03:01:49;101669.69;;;-8.20;100.00
29121;BME280;16191;49.548;8.658;2022-12-18T03:04:26;101676.41;;;-8.21;100.00
29121;BME280;16191;49.548;8.658;2022-12-18T03:06:57;101695.16;;;-8.34;100.00
29121;BME280;16191;49.548;8.658;2022-12-18T03:09:36;101697.81;;;-8.31;100.00
29121;BME280;16191;49.548;8.658;2022-12-18T03:12:15;101685.09;;;-8.32;100.00
29121;BME280;16191;49.548;8.658;2022-12-18T03:15:09;101689.22;;;-8.34;100.00
29121;BME280;16191;49.548;8.658;2022-12-18T03:17:56;101706.19;;;-8.32;100.00
29121;BME280;16191;49.548;8.658;2022-12-18T03:20:29;101719.50;;;-8.36;100.00
29121;BME280;16191;49.548;8.658;2022-12-18T03:23:07;101727.88;;;-8.37;100.00
29121;BME280;16191;49.548;8.658;2022-12-18T03:25:39;101732.34;;;-8.33;100.00
29121;BME280;16191;49.548;8.658;2022-12-18T03:28:09;101735.56;;;-8.35;100.00
29121;BME280;16191;49.548;8.658;2022-12-18T03:30:40;101728.56;;;-8.39;100.00
29121;BME280;16191;49.548;8.658;2022-12-18T03:33:18;101719.69;;;-8.33;100.00
29121;BME280;16191;49.548;8.658;2022-12-18T03:35:48;101715.91;;;-8.24;100.00
29121;BME280;16191;49.548;8.658;2022-12-18T03:38:17;101702.84;;;-8.32;100.00
29121;BME280;16191;49.548;8.658;2022-12-18T03:40:51;101691.38;;;-8.25;100.00
29121;BME280;16191;49.548;8.658;2022-12-18T03:43:34;101694.00;;;-8.39;100.00
29121;BME280;16191;49.548;8.658;2022-12-18T03:46:06;101709.44;;;-8.49;100.00
29121;BME280;16191;49.548;8.658;2022-12-18T03:48:41;101717.22;;;-8.46;100.00
29121;BME280;16191;49.548;8.658;2022-12-18T03:54:05;101702.91;;;-8.45;100.00
29121;BME280;16191;49.548;8.658;2022-12-18T03:56:44;101702.97;;;-8.29;100.00
29121;BME280;16191;49.548;8.658;2022-12-18T03:59:15;101701.69;;;-8.37;100.00
29121;BME280;16191;49.548;8.658;2022-12-18T04:01:46;101701.78;;;-8.36;100.00
29121;BME280;16191;49.548;8.658;2022-12-18T04:04:16;101697.66;;;-8.48;100.00
29121;BME280;16191;49.548;8.658;2022-12-18T04:06:46;101694.44;;;-8.46;100.00
29121;BME280;16191;49.548;8.658;2022-12-18T04:09:16;101702.03;;;-8.46;100.00
29121;BME280;16191;49.548;8.658;2022-12-18T04:11:46;101715.78;;;-8.70;100.00
29121;BME280;16191;49.548;8.658;2022-12-18T04:14:15;101714.44;;;-8.78;100.00
29121;BME280;16191;49.548;8.658;2022-12-18T04:16:48;101716.19;;;-8.77;100.00
29121;BME280;16191;49.548;8.658;2022-12-18T04:19:16;101711.59;;;-8.70;100.00
29121;BME280;16191;49.548;8.658;2022-12-18T04:21:46;101713.94;;;-8.73;100.00
29121;BME280;16191;49.548;8.658;2022-12-18T04:24:13;101707.09;;;-8.88;100.00
29121;BME280;16191;49.548;8.658;2022-12-18T04:26:49;101706.13;;;-8.90;100.00
29121;BME280;16191;49.548;8.658;2022-12-18T04:29:21;101698.88;;;-8.84;100.00
29121;BME280;16191;49.548;8.658;2022-12-18T04:31:47;101701.09;;;-8.76;100.00
29121;BME280;16191;49.548;8.658;2022-12-18T04:34:15;101700.13;;;-8.78;100.00
29121;BME280;16191;49.548;8.658;2022-12-18T04:36:47;101696.66;;;-8.65;100.00
29121;BME280;16191;49.548;8.658;2022-12-18T04:39:18;101692.75;;;-8.60;100.00
29121;BME280;16191;49.548;8.658;2022-12-18T04:41:47;101690.13;;;-8.61;100.00
29121;BME280;16191;49.548;8.658;2022-12-18T04:44:14;101697.63;;;-8.63;100.00
29121;BME280;16191;49.548;8.658;2022-12-18T04:46:41;101700.59;;;-8.70;100.00
29121;BME280;16191;49.548;8.658;2022-12-18T04:49:09;101694.09;;;-8.80;100.00
29121;BME280;16191;49.548;8.658;2022-12-18T04:51:37;101692.13;;;-8.71;100.00
29121;BME280;16191;49.548;8.658;2022-12-18T04:54:04;101698.66;;;-8.74;100.00
29121;BME280;16191;49.548;8.658;2022-12-18T04:56:31;101704.91;;;-8.82;100.00
29121;BME280;16191;49.548;8.658;2022-12-18T04:58:58;101699.66;;;-8.85;100.00
29121;BME280;16191;49.548;8.658;2022-12-18T05:01:25;101695.75;;;-8.80;100.00
29121;BME280;16191;49.548;8.658;2022-12-18T05:04:00;101698.56;;;-8.76;100.00
29121;BME280;16191;49.548;8.658;2022-12-18T05:06:27;101700.59;;;-8.70;100.00
29121;BME280;16191;49.548;8.658;2022-12-18T05:08:54;101699.25;;;-8.78;100.00
29121;BME280;16191;49.548;8.658;2022-12-18T05:11:21;101703.44;;;-8.79;100.00
29121;BME280;16191;49.548;8.658;2022-12-18T05:13:48;101713.19;;;-9.26;100.00
29121;BME280;16191;49.548;8.658;2022-12-18T05:16:15;101714.63;;;-9.16;100.00
29121;BME280;16191;49.548;8.658;2022-12-18T05:18:42;101722.97;;;-9.04;100.00
29121;BME280;16191;49.548;8.658;2022-12-18T05:21:09;101720.59;;;-8.88;100.00
29121;BME280;16191;49.548;8.658;2022-12-18T05:23:36;101725.25;;;-9.22;100.00
29121;BME280;16191;49.548;8.658;2022-12-18T05:26:05;101736.13;;;-9.23;100.00
29121;BME280;16191;49.548;8.658;2022-12-18T05:28:33;101737.25;;;-9.05;100.00
29121;BME280;16191;49.548;8.658;2022-12-18T05:31:02;101734.72;;;-8.91;100.00
29121;BME280;16191;49.548;8.658;2022-12-18T05:33:31;101740.41;;;-8.81;100.00
29121;BME280;16191;49.548;8.658;2022-12-18T05:36:04;101733.41;;;-8.85;100.00
29121;BME280;16191;49.548;8.658;2022-12-18T05:38:33;101727.84;;;-8.79;100.00
29121;BME280;16191;49.548;8.658;2022-12-18T05:41:00;101732.22;;;-8.77;100.00
29121;BME280;16191;49.548;8.658;2022-12-18T05:43:27;101721.91;;;-8.80;100.00
29121;BME280;16191;49.548;8.658;2022-12-18T05:45:54;101726.56;;;-9.01;100.00
29121;BME280;16191;49.548;8.658;2022-12-18T05:48:24;101725.72;;;-8.86;100.00
29121;BME280;16191;49.548;8.658;2022-12-18T05:50:51;101727.63;;;-8.69;100.00
29121;BME280;16191;49.548;8.658;2022-12-18T05:53:19;101727.84;;;-8.79;100.00
29121;BME280;16191;49.548;8.658;2022-12-18T05:55:47;101725.31;;;-8.66;100.00
29121;BME280;16191;49.548;8.658;2022-12-18T05:58:14;101711.84;;;-8.65;100.00
29121;BME280;16191;49.548;8.658;2022-12-18T06:00:44;101713.06;;;-8.73;100.00
29121;BME280;16191;49.548;8.658;2022-12-18T06:03:12;101713.69;;;-8.62;100.00
29121;BME280;16191;49.548;8.658;2022-12-18T06:05:44;101707.34;;;-8.56;100.00
29121;BME280;16191;49.548;8.658;2022-12-18T06:08:12;101714.91;;;-8.56;100.00
29121;BME280;16191;49.548;8.658;2022-12-18T06:10:39;101708.84;;;-8.45;100.00
29121;BME280;16191;49.548;8.658;2022-12-18T06:13:06;101721.41;;;-8.46;100.00
29121;BME280;16191;49.548;8.658;2022-12-18T06:15:36;101723.56;;;-8.52;100.00
29121;BME280;16191;49.548;8.658;2022-12-18T06:18:03;101723.09;;;-8.60;100.00
29121;BME280;16191;49.548;8.658;2022-12-18T06:20:30;101730.25;;;-8.95;100.00
29121;BME280;16191;49.548;8.658;2022-12-18T06:22:59;101735.59;;;-9.04;100.00
29121;BME280;16191;49.548;8.658;2022-12-18T06:25:26;101737.25;;;-8.91;100.00
29121;BME280;16191;49.548;8.658;2022-12-18T06:27:53;101748.72;;;-8.96;100.00
29121;BME280;16191;49.548;8.658;2022-12-18T06:30:20;101752.41;;;-8.91;100.00
29121;BME280;16191;49.548;8.658;2022-12-18T06:32:48;101759.03;;;-8.93;100.00
29121;BME280;16191;49.548;8.658;2022-12-18T06:35:21;101761.09;;;-9.01;100.00
29121;BME280;16191;49.548;8.658;2022-12-18T06:37:48;101766.66;;;-9.20;100.00
29121;BME280;16191;49.548;8.658;2022-12-18T06:40:15;101773.44;;;-8.92;100.00
29121;BME280;16191;49.548;8.658;2022-12-18T06:42:41;101767.69;;;-9.03;100.00
29121;BME280;16191;49.548;8.658;2022-12-18T06:45:08;101768.28;;;-8.94;100.00
29121;BME280;16191;49.548;8.658;2022-12-18T06:47:35;101765.31;;;-8.87;100.00
29121;BME280;16191;49.548;8.658;2022-12-18T06:50:02;101768.31;;;-8.66;100.00
29121;BME280;16191;49.548;8.658;2022-12-18T06:52:31;101773.44;;;-8.65;100.00
29121;BME280;16191;49.548;8.658;2022-12-18T06:54:58;101774.66;;;-8.73;100.00
29121;BME280;16191;49.548;8.658;2022-12-18T06:57:25;101781.50;;;-8.98;100.00
29121;BME280;16191;49.548;8.658;2022-12-18T06:59:51;101790.31;;;-8.78;100.00
29121;BME280;16191;49.548;8.658;2022-12-18T07:02:18;101789.50;;;-8.64;100.00
29121;BME280;16191;49.548;8.658;2022-12-18T07:04:45;101795.69;;;-8.87;100.00
29121;BME280;16191;49.548;8.658;2022-12-18T07:07:11;101802.41;;;-9.01;100.00
29121;BME280;16191;49.548;8.658;2022-12-18T07:09:38;101806.34;;;-9.19;100.00
29121;BME280;16191;49.548;8.658;2022-12-18T07:12:05;101815.25;;;-8.97;100.00
29121;BME280;16191;49.548;8.658;2022-12-18T07:14:33;101814.00;;;-8.91;100.00
29121;BME280;16191;49.548;8.658;2022-12-18T07:17:00;101809.38;;;-8.70;100.00
29121;BME280;16191;49.548;8.658;2022-12-18T07:19:27;101810.59;;;-8.91;100.00
29121;BME280;16191;49.548;8.658;2022-12-18T07:21:55;101813.88;;;-8.79;100.00
29121;BME280;16191;49.548;8.658;2022-12-18T07:24:21;101810.66;;;-8.77;100.00
29121;BME280;16191;49.548;8.658;2022-12-18T07:26:48;101808.34;;;-9.00;100.00
29121;BME280;16191;49.548;8.658;2022-12-18T07:29:14;101812.53;;;-9.01;100.00
29121;BME280;16191;49.548;8.658;2022-12-18T07:31:41;101812.34;;;-9.30;100.00
29121;BME280;16191;49.548;8.658;2022-12-18T07:34:12;101812.16;;;-9.07;100.00
29121;BME280;16191;49.548;8.658;2022-12-18T07:36:39;101812.25;;;-8.92;100.00
29121;BME280;16191;49.548;8.658;2022-12-18T07:39:05;101814.09;;;-9.03;100.00
29121;BME280;16191;49.548;8.658;2022-12-18T07:41:32;101809.53;;;-8.95;100.00
29121;BME280;16191;49.548;8.658;2022-12-18T07:44:10;101805.50;;;-8.78;100.00
29121;BME280;16191;49.548;8.658;2022-12-18T07:46:37;101794.00;;;-8.73;100.00
29121;BME280;16191;49.548;8.658;2022-12-18T07:49:04;101790.47;;;-8.62;100.00
29121;BME280;16191;49.548;8.658;2022-12-18T07:51:31;101784.22;;;-8.54;100.00
29121;BME280;16191;49.548;8.658;2022-12-18T07:53:57;101780.91;;;-8.53;100.00
29121;BME280;16191;49.548;8.658;2022-12-18T07:56:23;101781.53;;;-8.42;100.00
29121;BME280;16191;49.548;8.658;2022-12-18T07:58:54;101786.50;;;-8.44;100.00
29121;BME280;16191;49.548;8.658;2022-12-18T08:01:21;101785.91;;;-8.40;100.00
29121;BME280;16191;49.548;8.658;2022-12-18T08:03:47;101785.13;;;-8.39;100.00
29121;BME280;16191;49.548;8.658;2022-12-18T08:06:17;101783.66;;;-8.35;100.00
29121;BME280;16191;49.548;8.658;2022-12-18T08:08:44;101784.84;;;-8.43;100.00
29121;BME280;16191;49.548;8.658;2022-12-18T08:11:10;101781.91;;;-8.36;100.00
29121;BME280;16191;49.548;8.658;2022-12-18T08:13:37;101785.41;;;-8.34;100.00
29121;BME280;16191;49.548;8.658;2022-12-18T08:16:06;101794.28;;;-8.41;100.00
29121;BME280;16191;49.548;8.658;2022-12-18T08:18:34;101797.50;;;-8.43;100.00
29121;BME280;16191;49.548;8.658;2022-12-18T08:23:36;101813.41;;;-8.31;100.00
29121;BME280;16191;49.548;8.658;2022-12-18T08:26:08;101804.78;;;-8.35;100.00
29121;BME280;16191;49.548;8.658;2022-12-18T08:28:35;101800.50;;;-8.36;100.00
29121;BME280;16191;49.548;8.658;2022-12-18T08:31:02;101807.75;;;-8.27;100.00
29121;BME280;16191;49.548;8.658;2022-12-18T08:33:29;101808.28;;;-8.18;100.00
29121;BME280;16191;49.548;8.658;2022-12-18T08:35:55;101807.41;;;-8.18;100.00
29121;BME280;16191;49.548;8.658;2022-12-18T08:38:22;101811.19;;;-7.97;100.00
29121;BME280;16191;49.548;8.658;2022-12-18T08:40:49;101808.47;;;-8.15;100.00
29121;BME280;16191;49.548;8.658;2022-12-18T08:43:15;101800.56;;;-7.91;100.00
29121;BME280;16191;49.548;8.658;2022-12-18T08:46:01;101784.94;;;-7.70;100.00
29121;BME280;16191;49.548;8.658;2022-12-18T08:48:28;101785.56;;;-7.59;100.00
29121;BME280;16191;49.548;8.658;2022-12-18T08:50:58;101775.81;;;-7.51;100.00
29121;BME280;16191;49.548;8.658;2022-12-18T08:53:26;101770.00;;;-7.34;100.00
29121;BME280;16191;49.548;8.658;2022-12-18T08:55:59;101768.25;;;-7.35;100.00
29121;BME280;16191;49.548;8.658;2022-12-18T08:58:26;101775.56;;;-7.71;100.00
29121;BME280;16191;49.548;8.658;2022-12-18T09:00:53;101769.34;;;-7.46;100.00
29121;BME280;16191;49.548;8.658;2022-12-18T09:03:19;101766.50;;;-7.21;100.00
29121;BME280;16191;49.548;8.658;2022-12-18T09:05:48;101762.69;;;-6.99;100.00
29121;BME280;16191;49.548;8.658;2022-12-18T09:08:15;101742.94;;;-6.88;100.00
29121;BME280;16191;49.548;8.658;2022-12-18T09:10:43;101736.69;;;-6.78;100.00
29121;BME280;16191;49.548;8.658;2022-12-18T09:13:11;101728.63;;;-6.71;100.00
29121;BME280;16191;49.548;8.658;2022-12-18T09:15:42;101727.41;;;-6.78;100.00
29121;BME280;16191;49.548;8.658;2022-12-18T09:18:09;101721.56;;;-6.61;100.00
29121;BME280;16191;49.548;8.658;2022-12-18T09:20:36;101733.34;;;-6.45;100.00
29121;BME280;16191;49.548;8.658;2022-12-18T09:23:04;101728.28;;;-6.29;100.00
29121;BME280;16191;49.548;8.658;2022-12-18T09:25:30;101731.19;;;-6.21;100.00
29121;BME280;16191;49.548;8.658;2022-12-18T09:28:06;101728.69;;;-6.37;100.00
29121;BME280;16191;49.548;8.658;2022-12-18T09:30:33;101735.66;;;-6.33;100.00
29121;BME280;16191;49.548;8.658;2022-12-18T09:33:01;101736.63;;;-6.31;100.00
29121;BME280;16191;49.548;8.658;2022-12-18T09:35:27;101751.44;;;-6.06;100.00
29121;BME280;16191;49.548;8.658;2022-12-18T09:37:54;101752.19;;;-5.91;100.00
29121;BME280;16191;49.548;8.658;2022-12-18T09:40:23;101751.47;;;-5.89;100.00
29121;BME280;16191;49.548;8.658;2022-12-18T09:42:55;101756.63;;;-5.69;100.00
29121;BME280;16191;49.548;8.658;2022-12-18T09:45:23;101759.97;;;-5.70;100.00
29121;BME280;16191;49.548;8.658;2022-12-18T09:47:52;101765.78;;;-5.55;100.00
29121;BME280;16191;49.548;8.658;2022-12-18T09:50:27;101769.03;;;-5.40;100.00
29121;BME280;16191;49.548;8.658;2022-12-18T09:52:59;101761.41;;;-5.04;100.00
29121;BME280;16191;49.548;8.658;2022-12-18T09:55:41;101763.16;;;-5.03;100.00
29121;BME280;16191;49.548;8.658;2022-12-18T10:00:36;101784.53;;;-5.00;100.00
29121;BME280;16191;49.548;8.658;2022-12-18T10:03:14;101787.63;;;-4.88;100.00
29121;BME280;16191;49.548;8.658;2022-12-18T10:06:02;101782.19;;;-4.95;100.00
29121;BME280;16191;49.548;8.658;2022-12-18T10:11:32;101782.38;;;-5.45;100.00
29121;BME280;16191;49.548;8.658;2022-12-18T10:17:00;101780.25;;;-5.01;100.00
29121;BME280;16191;49.548;8.658;2022-12-18T10:25:05;101780.03;;;-4.68;100.00
29121;BME280;16191;49.548;8.658;2022-12-18T10:27:36;101783.63;;;-4.82;100.00
29121;BME280;16191;49.548;8.658;2022-12-18T10:30:20;101779.06;;;-4.90;100.00
29121;BME280;16191;49.548;8.658;2022-12-18T10:32:47;101776.97;;;-4.42;100.00
29121;BME280;16191;49.548;8.658;2022-12-18T10:35:26;101774.06;;;-4.50;100.00
29121;BME280;16191;49.548;8.658;2022-12-18T10:40:27;101772.97;;;-4.37;100.00
29121;BME280;16191;49.548;8.658;2022-12-18T10:43:13;101761.53;;;-4.26;100.00
29121;BME280;16191;49.548;8.658;2022-12-18T10:45:41;101764.19;;;-4.03;100.00
29121;BME280;16191;49.548;8.658;2022-12-18T10:48:21;101759.69;;;-3.69;100.00
29121;BME280;16191;49.548;8.658;2022-12-18T10:50:49;101747.63;;;-3.73;100.00
29121;BME280;16191;49.548;8.658;2022-12-18T10:53:40;101728.09;;;-3.29;100.00
29121;BME280;16191;49.548;8.658;2022-12-18T10:56:08;101730.19;;;-3.62;100.00
29121;BME280;16191;49.548;8.658;2022-12-18T10:58:37;101741.72;;;-3.51;100.00
29121;BME280;16191;49.548;8.658;2022-12-18T11:03:47;101755.56;;;-3.65;100.00
29121;BME280;16191;49.548;8.658;2022-12-18T11:06:28;101748.03;;;-3.41;100.00
29121;BME280;16191;49.548;8.658;2022-12-18T11:09:02;101742.69;;;-3.04;100.00
29121;BME280;16191;49.548;8.658;2022-12-18T11:11:37;101750.59;;;-3.41;100.00
29121;BME280;16191;49.548;8.658;2022-12-18T11:14:05;101744.69;;;-2.96;100.00
29121;BME280;16191;49.548;8.658;2022-12-18T11:16:36;101748.75;;;-2.79;100.00
29121;BME280;16191;49.548;8.658;2022-12-18T11:19:39;101751.59;;;-2.71;100.00
29121;BME280;16191;49.548;8.658;2022-12-18T11:22:39;101752.69;;;-2.64;100.00
29121;BME280;16191;49.548;8.658;2022-12-18T11:25:18;101752.25;;;-2.53;100.00
29121;BME280;16191;49.548;8.658;2022-12-18T11:28:02;101753.28;;;-2.94;100.00
29121;BME280;16191;49.548;8.658;2022-12-18T11:30:32;101743.28;;;-2.65;100.00
29121;BME280;16191;49.548;8.658;2022-12-18T11:36:02;101756.47;;;-2.77;100.00
29121;BME280;16191;49.548;8.658;2022-12-18T11:38:32;101752.22;;;-2.30;100.00
29121;BME280;16191;49.548;8.658;2022-12-18T11:41:12;101749.94;;;-2.23;100.00
29121;BME280;16191;49.548;8.658;2022-12-18T11:43:58;101760.84;;;-2.03;100.00
29121;BME280;16191;49.548;8.658;2022-12-18T11:46:45;101754.03;;;-2.96;100.00
29121;BME280;16191;49.548;8.658;2022-12-18T11:49:15;101749.25;;;-2.89;100.00
29121;BME280;16191;49.548;8.658;2022-12-18T11:51:53;101744.56;;;-2.77;100.00
29121;BME280;16191;49.548;8.658;2022-12-18T11:54:21;101744.44;;;-2.33;100.00
29121;BME280;16191;49.548;8.658;2022-12-18T12:02:41;101705.94;;;-2.13;100.00
29121;BME280;16191;49.548;8.658;2022-12-18T12:08:06;101719.53;;;-2.39;100.00
29121;BME280;16191;49.548;8.658;2022-12-18T12:11:01;101739.78;;;-2.45;100.00
29121;BME280;16191;49.548;8.658;2022-12-18T12:21:39;101731.75;;;-2.54;100.00
29121;BME280;16191;49.548;8.658;2022-12-18T12:27:29;101737.03;;;-2.73;100.00
29121;BME280;16191;49.548;8.658;2022-12-18T12:30:09;101726.91;;;-2.70;100.00
29121;BME280;16191;49.548;8.658;2022-12-18T12:33:02;101730.19;;;-2.51;100.00
29121;BME280;16191;49.548;8.658;2022-12-18T12:38:19;101724.47;;;-2.20;100.00
29121;BME280;16191;49.548;8.658;2022-12-18T12:40:59;101731.28;;;-1.95;100.00
29121;BME280;16191;49.548;8.658;2022-12-18T12:43:50;101728.66;;;-2.22;100.00
29121;BME280;16191;49.548;8.658;2022-12-18T12:46:18;101724.03;;;-2.56;100.00
29121;BME280;16191;49.548;8.658;2022-12-18T12:51:23;101712.00;;;-2.58;100.00
29121;BME280;16191;49.548;8.658;2022-12-18T12:53:53;101707.41;;;-2.68;100.00
29121;BME280;16191;49.548;8.658;2022-12-18T12:56:21;101676.47;;;-2.52;100.00
29121;BME280;16191;49.548;8.658;2022-12-18T13:01:36;101679.59;;;-2.35;100.00
29121;BME280;16191;49.548;8.658;2022-12-18T13:06:48;101665.53;;;-2.48;100.00
29121;BME280;16191;49.548;8.658;2022-12-18T13:09:17;101658.56;;;-2.52;100.00
29121;BME280;16191;49.548;8.658;2022-12-18T13:11:46;101648.91;;;-2.35;100.00
29121;BME280;16191;49.548;8.658;2022-12-18T13:14:34;101652.81;;;-2.21;100.00
29121;BME280;16191;49.548;8.658;2022-12-18T13:19:51;101638.69;;;-2.61;100.00
29121;BME280;16191;49.548;8.658;2022-12-18T13:22:25;101633.63;;;-2.59;100.00
29121;BME280;16191;49.548;8.658;2022-12-18T13:24:55;101632.84;;;-2.57;100.00
29121;BME280;16191;49.548;8.658;2022-12-18T13:28:07;101622.28;;;-2.67;100.00
29121;BME280;16191;49.548;8.658;2022-12-18T13:41:22;101624.25;;;-2.59;100.00
29121;BME280;16191;49.548;8.658;2022-12-18T13:43:54;101625.13;;;-2.58;100.00
29121;BME280;16191;49.548;8.658;2022-12-18T13:46:29;101623.63;;;-2.77;100.00
29121;BME280;16191;49.548;8.658;2022-12-18T13:49:03;101633.78;;;-3.26;100.00
29121;BME280;16191;49.548;8.658;2022-12-18T13:51:33;101631.78;;;-3.11;100.00
29121;BME280;16191;49.548;8.658;2022-12-18T13:56:53;101624.78;;;-2.93;100.00
29121;BME280;16191;49.548;8.658;2022-12-18T13:59:25;101624.31;;;-3.06;100.00
29121;BME280;16191;49.548;8.658;2022-12-18T14:01:58;101636.13;;;-3.08;100.00
29121;BME280;16191;49.548;8.658;2022-12-18T14:04:31;101629.66;;;-2.99;100.00
29121;BME280;16191;49.548;8.658;2022-12-18T14:10:13;101630.56;;;-3.21;100.00
29121;BME280;16191;49.548;8.658;2022-12-18T14:13:06;101632.53;;;-3.14;100.00
29121;BME280;16191;49.548;8.658;2022-12-18T14:15:43;101626.50;;;-3.16;100.00
29121;BME280;16191;49.548;8.658;2022-12-18T14:20:48;101626.63;;;-3.13;100.00
29121;BME280;16191;49.548;8.658;2022-12-18T14:25:57;101623.84;;;-3.63;100.00
29121;BME280;16191;49.548;8.658;2022-12-18T14:28:31;101630.53;;;-3.45;100.00
29121;BME280;16191;49.548;8.658;2022-12-18T14:30:58;101629.88;;;-3.39;100.00
29121;BME280;16191;49.548;8.658;2022-12-18T14:33:27;101625.47;;;-3.65;100.00
29121;BME280;16191;49.548;8.658;2022-12-18T14:36:03;101636.22;;;-3.52;100.00